Time;durP1;ratioP1;P1;durP2;ratioP2;P2;SDS_P1;SDS_P2;PMS_P1;PMS_P2;Temp;Humidity;BMP_temperature;BMP_pressure;BME280_temperature;BME280_humidity;BME280_pressure;Samples;Min_cycle;Max_cycle;Signal;HPM_P1;HPM_P2
2023/03/09 00:01:54;;;;;;;17.47;2.90;;;;;;;;;;5111956;28;20217;-77
2023/03/09 00:04:21;;;;;;;13.87;3.00;;;;;;;;;;5111924;28;20296;-77
2023/03/09 00:06:49;;;;;;;26.00;3.33;;;;;;;;;;5111692;28;20276;-77
2023/03/09 00:09:16;;;;;;;23.77;2.93;;;;;;;;;;5111755;28;20225;-77
2023/03/09 00:11:44;;;;;;;25.83;3.37;;;;;;;;;;5111988;28;20189;-76
2023/03/09 00:14:13;;;;;;;20.13;3.03;;;;;;;;;;5111929;28;20659;-77
2023/03/09 00:16:41;;;;;;;22.93;3.30;;;;;;;;;;5111202;28;20280;-77
2023/03/09 00:19:08;;;;;;;19.63;3.47;;;;;;;;;;5111749;28;20293;-77
2023/03/09 00:21:36;;;;;;;23.87;3.83;;;;;;;;;;5111595;28;20224;-77
2023/03/09 00:24:04;;;;;;;22.47;4.17;;;;;;;;;;5112009;28;20208;-76
2023/03/09 00:26:31;;;;;;;17.70;3.27;;;;;;;;;;5111257;28;20285;-76
2023/03/09 00:28:58;;;;;;;22.07;3.17;;;;;;;;;;5111278;28;20288;-77
2023/03/09 00:31:27;;;;;;;18.53;3.40;;;;;;;;;;5111317;28;20233;-77
2023/03/09 00:33:54;;;;;;;20.17;3.40;;;;;;;;;;5111588;28;20225;-77
2023/03/09 00:36:21;;;;;;;20.90;3.10;;;;;;;;;;5111260;28;20228;-77
2023/03/09 00:38:52;;;;;;;20.47;3.17;;;;;;;;;;5111350;28;20711;-77
2023/03/09 00:41:19;;;;;;;22.43;3.43;;;;;;;;;;5111558;28;20250;-78
2023/03/09 00:43:46;;;;;;;21.50;3.23;;;;;;;;;;5111256;28;20284;-78
2023/03/09 00:46:14;;;;;;;19.80;3.67;;;;;;;;;;5110609;28;20314;-77
2023/03/09 00:48:42;;;;;;;27.23;3.40;;;;;;;;;;5111268;28;20722;-77
2023/03/09 00:51:11;;;;;;;23.63;3.07;;;;;;;;;;5111131;28;20214;-77
2023/03/09 00:53:38;;;;;;;20.00;3.33;;;;;;;;;;5111529;28;20221;-77
2023/03/09 00:56:07;;;;;;;21.37;3.07;;;;;;;;;;5110700;28;20890;-77
2023/03/09 00:58:34;;;;;;;23.83;3.30;;;;;;;;;;5111122;28;20197;-78
2023/03/09 01:01:01;;;;;;;25.03;3.33;;;;;;;;;;5111188;28;20277;-76
2023/03/09 01:03:29;;;;;;;24.30;3.23;;;;;;;;;;5111322;28;20193;-77
2023/03/09 01:06:00;;;;;;;20.20;3.27;;;;;;;;;;5114743;28;20288;-77
2023/03/09 01:08:27;;;;;;;21.90;4.07;;;;;;;;;;5115120;28;20221;-77
2023/03/09 01:10:54;;;;;;;23.53;4.10;;;;;;;;;;5115285;28;20225;-78
2023/03/09 01:13:22;;;;;;;19.43;3.43;;;;;;;;;;5114738;28;20202;-77
2023/03/09 01:15:49;;;;;;;28.20;3.53;;;;;;;;;;5114154;28;20260;-77
2023/03/09 01:18:16;;;;;;;26.93;3.93;;;;;;;;;;5115027;28;20288;-77
2023/03/09 01:20:43;;;;;;;22.90;3.30;;;;;;;;;;5114620;27;20292;-77
2023/03/09 01:23:12;;;;;;;21.47;3.47;;;;;;;;;;5114968;28;20273;-77
2023/03/09 01:25:39;;;;;;;23.37;3.17;;;;;;;;;;5115370;28;20217;-77
2023/03/09 01:28:06;;;;;;;21.97;3.53;;;;;;;;;;5114878;28;20309;-77
2023/03/09 01:30:33;;;;;;;24.63;3.67;;;;;;;;;;5114713;28;20232;-77
2023/03/09 01:33:00;;;;;;;23.60;3.60;;;;;;;;;;5114767;28;20273;-77
2023/03/09 01:35:28;;;;;;;25.70;3.60;;;;;;;;;;5114754;28;20312;-77
2023/03/09 01:37:55;;;;;;;27.80;3.87;;;;;;;;;;5114804;28;20630;-77
2023/03/09 01:40:26;;;;;;;19.93;3.43;;;;;;;;;;5114354;28;20197;-77
2023/03/09 01:42:56;;;;;;;22.83;3.70;;;;;;;;;;5114410;28;20284;-77
2023/03/09 01:45:42;;;;;;;21.43;3.47;;;;;;;;;;5113557;28;20785;-77
2023/03/09 01:48:09;;;;;;;25.10;3.43;;;;;;;;;;5114580;28;20221;-78
2023/03/09 01:50:37;;;;;;;23.90;4.17;;;;;;;;;;5114442;28;20270;-77
2023/03/09 01:53:05;;;;;;;23.87;3.63;;;;;;;;;;5114507;28;20217;-76
2023/03/09 01:55:36;;;;;;;22.90;3.47;;;;;;;;;;5113978;28;20753;-77
2023/03/09 01:58:05;;;;;;;26.63;3.87;;;;;;;;;;5114216;28;20189;-78
2023/03/09 02:00:33;;;;;;;30.17;3.77;;;;;;;;;;5114522;28;20263;-77
2023/03/09 02:03:01;;;;;;;27.00;4.37;;;;;;;;;;5114220;28;20221;-78
2023/03/09 02:05:32;;;;;;;22.67;4.07;;;;;;;;;;5113592;28;20285;-78
2023/03/09 02:07:59;;;;;;;20.30;3.60;;;;;;;;;;5113900;28;20197;-77
2023/03/09 02:10:28;;;;;;;24.30;3.97;;;;;;;;;;5114117;28;20285;-77
2023/03/09 02:12:59;;;;;;;23.03;3.77;;;;;;;;;;5101582;28;20297;-77
2023/03/09 02:15:26;;;;;;;21.07;4.53;;;;;;;;;;5092798;28;20321;-77
2023/03/09 02:17:53;;;;;;;26.93;3.90;;;;;;;;;;5093418;28;20194;-78
2023/03/09 02:20:23;;;;;;;24.57;3.90;;;;;;;;;;5093627;28;20236;-77
2023/03/09 02:22:51;;;;;;;29.80;4.23;;;;;;;;;;5093626;28;20273;-77
2023/03/09 02:25:21;;;;;;;24.57;3.87;;;;;;;;;;5093176;28;20290;-77
2023/03/09 02:27:50;;;;;;;26.37;3.93;;;;;;;;;;5092779;28;20230;-75
2023/03/09 02:30:17;;;;;;;23.73;4.57;;;;;;;;;;5093263;28;20281;-78
2023/03/09 02:32:44;;;;;;;31.73;3.83;;;;;;;;;;5093190;28;20252;-76
2023/03/09 02:35:11;;;;;;;34.23;3.80;;;;;;;;;;5092824;28;20317;-76
2023/03/09 02:37:39;;;;;;;29.77;4.03;;;;;;;;;;5092952;28;20302;-78
2023/03/09 02:40:11;;;;;;;25.03;4.33;;;;;;;;;;5097412;28;20230;-76
2023/03/09 02:42:39;;;;;;;25.20;3.63;;;;;;;;;;5092745;28;20230;-78
2023/03/09 02:45:09;;;;;;;26.67;4.43;;;;;;;;;;5093140;28;20348;-77
2023/03/09 02:47:38;;;;;;;26.63;3.97;;;;;;;;;;5092983;28;20198;-79
2023/03/09 02:50:06;;;;;;;27.00;3.90;;;;;;;;;;5092642;28;20579;-78
2023/03/09 02:52:33;;;;;;;21.63;3.33;;;;;;;;;;5092866;28;20278;-78
2023/03/09 02:55:00;;;;;;;26.73;4.13;;;;;;;;;;5092730;28;20317;-78
2023/03/09 02:57:28;;;;;;;25.17;3.97;;;;;;;;;;5092226;28;20745;-77
2023/03/09 02:59:55;;;;;;;29.03;4.03;;;;;;;;;;5092559;28;20230;-77
2023/03/09 03:02:23;;;;;;;30.37;4.57;;;;;;;;;;5092490;28;20281;-78
2023/03/09 03:04:50;;;;;;;29.67;3.90;;;;;;;;;;5092699;28;20289;-77
2023/03/09 03:07:18;;;;;;;28.63;4.50;;;;;;;;;;5092463;28;20289;-75
2023/03/09 03:09:45;;;;;;;26.10;4.07;;;;;;;;;;5092301;28;20666;-77
2023/03/09 03:12:12;;;;;;;27.77;4.30;;;;;;;;;;5097733;28;20255;-77
2023/03/09 03:14:39;;;;;;;28.80;4.67;;;;;;;;;;5112728;28;20312;-77
2023/03/09 03:17:06;;;;;;;28.77;4.30;;;;;;;;;;5112457;28;20654;-77
2023/03/09 03:19:35;;;;;;;33.97;5.20;;;;;;;;;;5112645;28;20232;-76
2023/03/09 03:22:02;;;;;;;28.97;3.97;;;;;;;;;;5112751;28;20285;-76
2023/03/09 03:24:29;;;;;;;28.93;4.00;;;;;;;;;;5112558;28;20612;-77
2023/03/09 03:26:57;;;;;;;32.30;4.63;;;;;;;;;;5112009;28;20294;-77
2023/03/09 03:29:24;;;;;;;28.70;4.30;;;;;;;;;;5112043;28;20293;-78
2023/03/09 03:31:52;;;;;;;28.80;4.40;;;;;;;;;;5113021;27;20198;-77
2023/03/09 03:34:19;;;;;;;31.20;4.23;;;;;;;;;;5112053;28;20701;-76
2023/03/09 03:36:47;;;;;;;35.63;4.93;;;;;;;;;;5111897;28;20366;-77
2023/03/09 03:39:15;;;;;;;31.13;4.40;;;;;;;;;;5111972;28;20288;-77
2023/03/09 03:41:42;;;;;;;34.70;4.43;;;;;;;;;;5112077;28;20218;-78
2023/03/09 03:44:09;;;;;;;37.40;5.20;;;;;;;;;;5112653;28;20237;-77
2023/03/09 03:46:36;;;;;;;34.17;4.80;;;;;;;;;;5112091;28;20257;-77
2023/03/09 03:49:03;;;;;;;26.97;4.87;;;;;;;;;;5112254;28;20627;-77
2023/03/09 03:51:31;;;;;;;39.10;4.77;;;;;;;;;;5112195;28;20281;-77
2023/03/09 03:53:59;;;;;;;32.37;4.93;;;;;;;;;;5112110;28;20228;-78
2023/03/09 03:56:26;;;;;;;31.17;4.77;;;;;;;;;;5111630;28;20315;-77
2023/03/09 03:58:54;;;;;;;34.37;5.03;;;;;;;;;;5112161;28;20218;-78
2023/03/09 04:01:21;;;;;;;36.77;4.23;;;;;;;;;;5111887;28;20285;-78
2023/03/09 04:03:48;;;;;;;33.13;4.97;;;;;;;;;;5111681;28;20263;-78
2023/03/09 04:06:15;;;;;;;33.93;4.90;;;;;;;;;;5111960;28;20205;-78
2023/03/09 04:08:43;;;;;;;30.30;4.03;;;;;;;;;;5111822;28;20277;-77
2023/03/09 04:11:13;;;;;;;33.20;5.23;;;;;;;;;;5111879;28;20197;-77
2023/03/09 04:13:40;;;;;;;32.90;5.20;;;;;;;;;;5111705;28;20288;-77
2023/03/09 04:16:07;;;;;;;36.23;5.43;;;;;;;;;;5111338;28;20725;-77
2023/03/09 04:18:34;;;;;;;35.67;4.53;;;;;;;;;;5111703;28;20197;-77
2023/03/09 04:21:02;;;;;;;34.53;4.90;;;;;;;;;;5112147;28;20273;-78
2023/03/09 04:23:29;;;;;;;31.10;5.67;;;;;;;;;;5111425;28;20214;-77
2023/03/09 04:25:56;;;;;;;36.63;4.90;;;;;;;;;;5111429;28;20190;-78
2023/03/09 04:28:26;;;;;;;32.97;5.13;;;;;;;;;;5111708;28;20276;-78
2023/03/09 04:30:53;;;;;;;41.87;4.53;;;;;;;;;;5111459;28;20236;-77
2023/03/09 04:33:21;;;;;;;36.77;5.17;;;;;;;;;;5111560;28;20627;-77
2023/03/09 04:35:48;;;;;;;34.37;5.00;;;;;;;;;;5111038;28;20717;-77
2023/03/09 04:38:15;;;;;;;33.47;5.40;;;;;;;;;;5111254;28;20254;-77
2023/03/09 04:40:43;;;;;;;24.97;4.27;;;;;;;;;;5115240;28;20268;-78
2023/03/09 04:43:10;;;;;;;38.77;5.33;;;;;;;;;;5116130;28;20190;-77
2023/03/09 04:45:38;;;;;;;29.80;5.07;;;;;;;;;;5115365;28;20328;-77
2023/03/09 04:48:06;;;;;;;30.37;5.60;;;;;;;;;;5115354;28;20225;-77
2023/03/09 04:50:33;;;;;;;37.47;5.37;;;;;;;;;;5115909;28;20734;-77
2023/03/09 04:53:00;;;;;;;40.73;5.30;;;;;;;;;;5115538;28;20217;-78
2023/03/09 04:55:27;;;;;;;36.13;4.93;;;;;;;;;;5115706;28;20261;-77
2023/03/09 04:57:55;;;;;;;34.37;4.73;;;;;;;;;;5115282;28;20288;-77
2023/03/09 05:00:23;;;;;;;34.47;5.73;;;;;;;;;;5115262;28;20644;-78
2023/03/09 05:02:51;;;;;;;34.43;5.47;;;;;;;;;;5115039;28;20326;-76
2023/03/09 05:05:19;;;;;;;36.57;5.70;;;;;;;;;;5101606;28;20718;-76
2023/03/09 05:07:46;;;;;;;36.97;5.60;;;;;;;;;;5115099;28;20194;-77
2023/03/09 05:10:13;;;;;;;40.37;6.53;;;;;;;;;;5115084;28;20273;-77
2023/03/09 05:12:40;;;;;;;38.10;5.40;;;;;;;;;;5115023;28;20201;-76
2023/03/09 05:15:08;;;;;;;41.67;5.83;;;;;;;;;;5115296;28;20225;-77
2023/03/09 05:17:36;;;;;;;41.00;5.87;;;;;;;;;;5114751;28;20662;-77
2023/03/09 05:20:09;;;;;;;40.77;6.50;;;;;;;;;;5115233;28;20289;-77
2023/03/09 05:22:37;;;;;;;36.13;6.00;;;;;;;;;;5114625;28;20208;-77
2023/03/09 05:25:04;;;;;;;39.03;6.27;;;;;;;;;;5115467;27;20579;-76
2023/03/09 05:27:31;;;;;;;39.30;6.17;;;;;;;;;;5114957;28;20656;-77
2023/03/09 05:29:59;;;;;;;36.57;6.73;;;;;;;;;;5114554;27;20198;-77
2023/03/09 05:32:26;;;;;;;39.37;6.37;;;;;;;;;;5114704;28;20225;-77
2023/03/09 05:34:53;;;;;;;37.70;5.67;;;;;;;;;;5109211;28;20198;-77
2023/03/09 05:37:22;;;;;;;45.80;6.67;;;;;;;;;;5102566;28;20789;-77
2023/03/09 05:39:50;;;;;;;41.83;6.20;;;;;;;;;;5094704;28;20293;-77
2023/03/09 05:42:17;;;;;;;38.43;6.07;;;;;;;;;;5094345;28;20198;-77
2023/03/09 05:44:44;;;;;;;40.13;5.87;;;;;;;;;;5093725;28;20281;-77
2023/03/09 05:47:12;;;;;;;36.93;6.00;;;;;;;;;;5093617;28;20222;-78
2023/03/09 05:49:39;;;;;;;43.57;6.37;;;;;;;;;;5094079;28;20285;-78
2023/03/09 05:52:07;;;;;;;41.27;6.30;;;;;;;;;;5093493;28;20229;-77
2023/03/09 05:54:35;;;;;;;37.20;5.97;;;;;;;;;;5094044;28;20194;-78
2023/03/09 05:57:02;;;;;;;40.53;6.07;;;;;;;;;;5093769;28;20261;-78
2023/03/09 05:59:30;;;;;;;37.37;5.90;;;;;;;;;;5094028;28;20226;-77
2023/03/09 06:01:57;;;;;;;44.03;6.47;;;;;;;;;;5093600;28;20285;-77
2023/03/09 06:04:24;;;;;;;40.77;6.03;;;;;;;;;;5093878;28;20222;-78
2023/03/09 06:06:51;;;;;;;33.83;5.80;;;;;;;;;;5093418;28;20230;-78
2023/03/09 06:09:18;;;;;;;35.30;5.63;;;;;;;;;;5105544;27;20293;-78
2023/03/09 06:11:47;;;;;;;45.17;6.90;;;;;;;;;;5113788;28;20547;-78
2023/03/09 06:14:14;;;;;;;38.87;6.03;;;;;;;;;;5113810;28;20379;-77
2023/03/09 06:16:41;;;;;;;42.33;6.43;;;;;;;;;;5113981;28;20226;-78
2023/03/09 06:19:08;;;;;;;36.03;6.40;;;;;;;;;;5113546;28;20229;-76
2023/03/09 06:21:36;;;;;;;33.63;6.37;;;;;;;;;;5113697;28;20750;-78
2023/03/09 06:24:03;;;;;;;42.37;5.90;;;;;;;;;;5113656;28;20654;-78
2023/03/09 06:26:30;;;;;;;33.37;6.10;;;;;;;;;;5115049;27;20230;-79
2023/03/09 06:28:59;;;;;;;38.73;5.33;;;;;;;;;;5113067;28;20284;-77
2023/03/09 06:31:26;;;;;;;34.37;6.23;;;;;;;;;;5113315;28;20729;-80
2023/03/09 06:33:53;;;;;;;38.70;6.27;;;;;;;;;;5113307;28;20332;-79
2023/03/09 06:36:20;;;;;;;39.43;6.47;;;;;;;;;;5113552;28;20271;-78
2023/03/09 06:38:47;;;;;;;37.73;6.37;;;;;;;;;;5112472;28;20251;-78
2023/03/09 06:41:15;;;;;;;35.57;5.97;;;;;;;;;;5095388;28;20202;-78
2023/03/09 06:43:45;;;;;;;36.37;6.00;;;;;;;;;;5106490;27;20197;-77
2023/03/09 06:46:13;;;;;;;35.50;5.60;;;;;;;;;;5102086;28;20291;-77
2023/03/09 06:48:41;;;;;;;42.03;6.20;;;;;;;;;;5098099;28;20736;-79
2023/03/09 06:51:08;;;;;;;42.00;6.57;;;;;;;;;;5101538;28;20226;-79
2023/03/09 06:53:35;;;;;;;32.13;5.90;;;;;;;;;;5112553;28;20221;-79
2023/03/09 06:56:02;;;;;;;40.70;6.60;;;;;;;;;;5112868;28;20725;-79
2023/03/09 06:58:30;;;;;;;35.00;5.67;;;;;;;;;;5112904;28;20211;-77
2023/03/09 07:00:58;;;;;;;35.67;5.80;;;;;;;;;;5112681;28;20693;-79
2023/03/09 07:03:26;;;;;;;34.60;6.47;;;;;;;;;;5112197;28;20225;-80
2023/03/09 07:05:53;;;;;;;37.63;6.30;;;;;;;;;;5113161;28;20229;-78
2023/03/09 07:08:21;;;;;;;49.03;7.30;;;;;;;;;;5113204;28;20276;-79
2023/03/09 07:10:49;;;;;;;46.20;6.07;;;;;;;;;;5111774;28;20642;-79
2023/03/09 07:13:16;;;;;;;45.73;6.53;;;;;;;;;;5112774;28;20197;-79
2023/03/09 07:15:44;;;;;;;38.37;5.83;;;;;;;;;;5112745;28;20289;-79
2023/03/09 07:18:12;;;;;;;41.37;5.87;;;;;;;;;;5112326;28;20288;-79
2023/03/09 07:20:41;;;;;;;44.17;6.50;;;;;;;;;;5111588;28;20281;-79
2023/03/09 07:23:08;;;;;;;39.93;6.77;;;;;;;;;;5112524;28;20280;-79
2023/03/09 07:25:35;;;;;;;34.67;6.20;;;;;;;;;;5112701;28;20221;-80
2023/03/09 07:28:03;;;;;;;42.30;5.73;;;;;;;;;;5112544;28;20194;-79
2023/03/09 07:30:31;;;;;;;28.63;6.13;;;;;;;;;;5112795;28;20218;-80
2023/03/09 07:32:58;;;;;;;42.07;6.70;;;;;;;;;;5112466;28;20243;-78
2023/03/09 07:35:26;;;;;;;33.27;6.40;;;;;;;;;;5112804;28;20280;-79
2023/03/09 07:37:55;;;;;;;37.30;6.47;;;;;;;;;;5112634;28;20226;-80
2023/03/09 07:40:22;;;;;;;37.97;6.43;;;;;;;;;;5112831;28;20193;-79
2023/03/09 07:42:52;;;;;;;37.40;6.37;;;;;;;;;;5112483;28;20221;-79
2023/03/09 07:45:20;;;;;;;36.33;5.93;;;;;;;;;;5112204;28;20236;-80
2023/03/09 07:47:48;;;;;;;32.60;6.20;;;;;;;;;;5112301;28;20194;-80
2023/03/09 07:50:15;;;;;;;37.57;6.27;;;;;;;;;;5112220;28;20194;-79
2023/03/09 07:52:42;;;;;;;40.37;6.87;;;;;;;;;;5112209;28;20221;-80
2023/03/09 07:55:13;;;;;;;30.40;6.07;;;;;;;;;;5112342;28;20252;-79
2023/03/09 07:57:40;;;;;;;41.67;6.40;;;;;;;;;;5111830;28;20312;-79
2023/03/09 08:00:12;;;;;;;40.30;6.97;;;;;;;;;;5111900;28;20281;-77
2023/03/09 08:02:40;;;;;;;37.07;6.50;;;;;;;;;;5112577;28;20688;-77
2023/03/09 08:05:08;;;;;;;33.63;6.47;;;;;;;;;;5111921;28;20284;-79
2023/03/09 08:07:35;;;;;;;39.80;6.60;;;;;;;;;;5111995;28;20678;-77
2023/03/09 08:10:03;;;;;;;36.97;5.80;;;;;;;;;;5112514;28;20285;-79
2023/03/09 08:12:31;;;;;;;29.07;6.17;;;;;;;;;;5112068;28;20281;-79
2023/03/09 08:14:58;;;;;;;37.50;7.43;;;;;;;;;;5111735;28;20280;-79
2023/03/09 08:17:27;;;;;;;31.53;5.67;;;;;;;;;;5111520;28;20260;-79
2023/03/09 08:19:54;;;;;;;33.23;6.20;;;;;;;;;;5111850;28;20204;-79
2023/03/09 08:22:22;;;;;;;30.97;5.60;;;;;;;;;;5111865;28;20776;-79
2023/03/09 08:24:49;;;;;;;28.60;5.80;;;;;;;;;;5111937;28;20198;-78
2023/03/09 08:27:16;;;;;;;34.80;5.57;;;;;;;;;;5112197;28;20276;-80
2023/03/09 08:29:45;;;;;;;36.67;6.50;;;;;;;;;;5111401;28;20326;-80
2023/03/09 08:32:13;;;;;;;31.03;6.17;;;;;;;;;;5111849;28;20769;-80
2023/03/09 08:34:40;;;;;;;31.47;5.90;;;;;;;;;;5111696;28;20275;-78
2023/03/09 08:37:07;;;;;;;36.50;7.00;;;;;;;;;;5111873;28;20316;-78
2023/03/09 08:39:35;;;;;;;36.00;5.73;;;;;;;;;;5111664;28;20865;-77
2023/03/09 08:42:02;;;;;;;31.57;6.23;;;;;;;;;;5111809;28;20198;-78
2023/03/09 08:44:29;;;;;;;39.10;5.93;;;;;;;;;;5110473;28;20281;-78
2023/03/09 08:46:58;;;;;;;34.40;5.57;;;;;;;;;;5111437;28;20215;-77
2023/03/09 08:49:25;;;;;;;35.17;6.40;;;;;;;;;;5111760;28;20246;-77
2023/03/09 08:51:52;;;;;;;37.23;6.33;;;;;;;;;;5111748;28;20221;-78
2023/03/09 08:54:19;;;;;;;35.67;6.23;;;;;;;;;;5111941;28;20271;-77
2023/03/09 08:56:47;;;;;;;38.30;6.77;;;;;;;;;;5111495;28;20324;-77
2023/03/09 08:59:14;;;;;;;39.33;6.73;;;;;;;;;;5111072;28;20281;-78
2023/03/09 09:01:41;;;;;;;32.83;6.53;;;;;;;;;;5111393;28;20606;-77
2023/03/09 09:04:09;;;;;;;30.07;5.93;;;;;;;;;;5111629;28;20221;-76
2023/03/09 09:06:37;;;;;;;37.13;5.97;;;;;;;;;;5111919;28;20617;-77
2023/03/09 09:09:04;;;;;;;33.23;5.33;;;;;;;;;;5110986;28;20289;-77
2023/03/09 09:11:32;;;;;;;34.87;5.83;;;;;;;;;;5112106;28;20288;-77
2023/03/09 09:13:59;;;;;;;36.87;6.90;;;;;;;;;;5110915;28;20775;-77
2023/03/09 09:16:29;;;;;;;34.13;6.20;;;;;;;;;;5110973;28;20225;-77
2023/03/09 09:18:56;;;;;;;38.60;6.03;;;;;;;;;;5111682;28;20292;-77
2023/03/09 09:21:27;;;;;;;31.83;6.50;;;;;;;;;;5111461;28;20251;-78
2023/03/09 09:23:55;;;;;;;29.30;5.87;;;;;;;;;;5111117;28;20197;-77
2023/03/09 09:26:22;;;;;;;37.73;7.40;;;;;;;;;;5113580;28;20284;-76
2023/03/09 09:28:50;;;;;;;36.30;7.07;;;;;;;;;;5114957;28;20198;-77
2023/03/09 09:31:19;;;;;;;41.40;6.07;;;;;;;;;;5115041;28;20194;-77
2023/03/09 09:33:47;;;;;;;35.00;6.00;;;;;;;;;;5114995;28;20212;-76
2023/03/09 09:36:15;;;;;;;32.60;6.50;;;;;;;;;;5115030;28;20213;-78
2023/03/09 09:38:43;;;;;;;33.57;5.80;;;;;;;;;;5114758;28;20316;-77
2023/03/09 09:41:15;;;;;;;31.20;6.07;;;;;;;;;;5114970;28;20316;-77
2023/03/09 09:43:42;;;;;;;36.83;6.63;;;;;;;;;;5114382;28;20315;-77
2023/03/09 09:46:11;;;;;;;34.57;6.17;;;;;;;;;;5114613;28;20328;-77
2023/03/09 09:48:40;;;;;;;34.40;6.50;;;;;;;;;;5114817;28;20296;-77
2023/03/09 09:51:12;;;;;;;36.03;6.47;;;;;;;;;;5114582;28;20208;-78
2023/03/09 09:53:43;;;;;;;36.77;6.03;;;;;;;;;;5114735;28;20280;-77
2023/03/09 09:56:13;;;;;;;35.27;5.90;;;;;;;;;;5115078;27;20229;-78
2023/03/09 09:58:45;;;;;;;35.07;5.57;;;;;;;;;;5113927;28;20329;-77
2023/03/09 10:01:19;;;;;;;37.97;6.63;;;;;;;;;;5114300;28;20289;-77
2023/03/09 10:03:48;;;;;;;36.30;6.47;;;;;;;;;;5114254;28;20658;-77
2023/03/09 10:06:18;;;;;;;37.07;6.33;;;;;;;;;;5114155;28;20239;-77
2023/03/09 10:08:48;;;;;;;30.60;5.87;;;;;;;;;;5114669;28;20229;-75
2023/03/09 10:11:19;;;;;;;30.87;5.70;;;;;;;;;;5113975;28;20197;-77
2023/03/09 10:13:48;;;;;;;25.57;4.83;;;;;;;;;;5114089;28;20237;-77
2023/03/09 10:16:17;;;;;;;30.10;6.63;;;;;;;;;;5114171;28;20225;-76
2023/03/09 10:18:47;;;;;;;27.37;5.80;;;;;;;;;;5114372;28;20264;-76
2023/03/09 10:21:17;;;;;;;34.40;5.73;;;;;;;;;;5113860;28;20590;-77
2023/03/09 10:23:44;;;;;;;29.53;5.67;;;;;;;;;;5114351;28;20266;-77
2023/03/09 10:26:19;;;;;;;27.37;5.17;;;;;;;;;;5113594;28;20407;-78
2023/03/09 10:28:47;;;;;;;30.80;5.33;;;;;;;;;;5113773;28;20224;-77
2023/03/09 10:31:17;;;;;;;32.77;6.00;;;;;;;;;;5113817;28;20285;-78
2023/03/09 10:33:45;;;;;;;32.83;6.23;;;;;;;;;;5114025;28;20225;-78
2023/03/09 10:36:15;;;;;;;27.53;5.23;;;;;;;;;;5113922;28;20693;-77
2023/03/09 10:38:42;;;;;;;24.60;5.07;;;;;;;;;;5112809;28;20249;-77
2023/03/09 10:41:16;;;;;;;24.37;5.23;;;;;;;;;;5113389;28;20297;-77
2023/03/09 10:43:44;;;;;;;29.00;6.47;;;;;;;;;;5113622;28;20243;-77
2023/03/09 10:46:14;;;;;;;26.77;4.60;;;;;;;;;;5113360;28;20292;-77
2023/03/09 10:48:41;;;;;;;26.73;5.80;;;;;;;;;;5113599;28;20198;-77
2023/03/09 10:51:22;;;;;;;24.57;5.30;;;;;;;;;;5113444;28;20276;-77
2023/03/09 10:53:49;;;;;;;30.43;5.73;;;;;;;;;;5113201;28;20292;-77
2023/03/09 10:56:17;;;;;;;26.60;5.30;;;;;;;;;;5112913;28;20757;-77
2023/03/09 10:58:46;;;;;;;25.73;5.20;;;;;;;;;;5113444;28;20316;-77
2023/03/09 11:01:24;;;;;;;22.73;4.23;;;;;;;;;;5113054;28;20236;-78
2023/03/09 11:03:52;;;;;;;20.33;4.37;;;;;;;;;;5113397;28;20225;-77
2023/03/09 11:06:27;;;;;;;18.73;4.27;;;;;;;;;;5113366;28;20193;-78
2023/03/09 11:08:55;;;;;;;13.77;2.83;;;;;;;;;;5113157;28;20189;-77
2023/03/09 11:11:23;;;;;;;15.43;3.63;;;;;;;;;;5112813;28;20229;-77
2023/03/09 11:13:52;;;;;;;11.97;2.97;;;;;;;;;;5112751;28;20618;-78
2023/03/09 11:16:22;;;;;;;14.57;3.77;;;;;;;;;;5113046;28;20225;-77
2023/03/09 11:18:49;;;;;;;13.47;4.37;;;;;;;;;;5112545;28;20324;-77
2023/03/09 11:21:22;;;;;;;12.87;3.37;;;;;;;;;;5112559;28;20205;-77
2023/03/09 11:23:50;;;;;;;12.40;3.20;;;;;;;;;;5112847;28;20201;-77
2023/03/09 11:26:21;;;;;;;12.60;3.00;;;;;;;;;;5112959;28;20289;-79
2023/03/09 11:28:51;;;;;;;14.00;3.30;;;;;;;;;;5112534;28;20823;-78
2023/03/09 11:31:21;;;;;;;14.73;3.63;;;;;;;;;;5112518;28;20194;-77
2023/03/09 11:33:50;;;;;;;15.37;3.80;;;;;;;;;;5112459;28;20572;-77
2023/03/09 11:36:18;;;;;;;16.80;3.90;;;;;;;;;;5112755;28;20229;-77
2023/03/09 11:38:46;;;;;;;14.23;3.58;;;;;;;;;;5112384;28;20252;-77
2023/03/09 11:41:16;;;;;;;18.50;4.20;;;;;;;;;;5112372;28;20296;-76
2023/03/09 11:43:44;;;;;;;18.37;3.87;;;;;;;;;;5112584;28;20655;-77
2023/03/09 11:46:14;;;;;;;18.30;4.07;;;;;;;;;;5112418;28;20229;-77
2023/03/09 11:48:45;;;;;;;29.40;5.00;;;;;;;;;;5111832;28;20225;-77
2023/03/09 11:51:14;;;;;;;26.37;5.40;;;;;;;;;;5112335;28;20300;-76
2023/03/09 11:53:44;;;;;;;27.33;4.83;;;;;;;;;;5112055;28;20189;-77
2023/03/09 11:56:17;;;;;;;22.27;5.03;;;;;;;;;;5112219;28;20288;-77
2023/03/09 11:58:45;;;;;;;22.07;4.30;;;;;;;;;;5112528;28;20828;-77
2023/03/09 12:01:19;;;;;;;28.00;4.53;;;;;;;;;;5112322;28;20225;-78
2023/03/09 12:03:50;;;;;;;24.80;5.50;;;;;;;;;;5112170;28;20220;-79
2023/03/09 12:06:27;;;;;;;24.88;5.10;;;;;;;;;;5112000;28;20902;-78
2023/03/09 12:08:56;;;;;;;29.98;5.43;;;;;;;;;;5112075;28;20205;-78
2023/03/09 12:11:25;;;;;;;20.88;4.70;;;;;;;;;;5112097;28;20232;-78
2023/03/09 12:13:55;;;;;;;22.65;4.60;;;;;;;;;;5111832;28;20206;-77
2023/03/09 12:16:23;;;;;;;21.23;4.93;;;;;;;;;;5112305;28;20229;-78
2023/03/09 12:19:00;;;;;;;24.15;4.90;;;;;;;;;;5111767;28;20816;-77
2023/03/09 12:21:32;;;;;;;26.60;4.80;;;;;;;;;;5112424;28;20293;-76
2023/03/09 12:24:01;;;;;;;22.10;5.07;;;;;;;;;;5111330;28;20285;-77
2023/03/09 12:26:32;;;;;;;26.10;4.83;;;;;;;;;;5111851;28;20664;-77
2023/03/09 12:29:01;;;;;;;24.50;4.80;;;;;;;;;;5112037;28;20630;-78
2023/03/09 12:31:32;;;;;;;28.50;4.90;;;;;;;;;;5111926;28;20632;-77
2023/03/09 12:34:05;;;;;;;25.70;5.37;;;;;;;;;;5111844;28;20302;-77
2023/03/09 12:36:34;;;;;;;24.23;4.60;;;;;;;;;;5110454;28;20658;-78
2023/03/09 12:39:20;;;;;;;20.63;4.30;;;;;;;;;;5111739;28;20225;-78
2023/03/09 12:41:57;;;;;;;22.17;4.33;;;;;;;;;;5111965;28;20190;-78
2023/03/09 12:44:39;;;;;;;16.37;4.37;;;;;;;;;;5111794;28;20296;-78
2023/03/09 12:47:22;;;;;;;21.07;4.63;;;;;;;;;;5111615;28;20653;-78
2023/03/09 12:49:51;;;;;;;22.30;4.87;;;;;;;;;;5111784;28;20293;-78
2023/03/09 12:52:35;;;;;;;24.70;4.57;;;;;;;;;;5111591;28;20272;-78
2023/03/09 12:55:05;;;;;;;25.97;5.00;;;;;;;;;;5111522;28;20685;-78
2023/03/09 12:57:32;;;;;;;26.37;5.17;;;;;;;;;;5111820;28;20228;-77
2023/03/09 13:00:13;;;;;;;21.47;4.80;;;;;;;;;;5111861;28;20288;-77
2023/03/09 13:02:41;;;;;;;27.10;4.97;;;;;;;;;;5115860;28;20217;-78
2023/03/09 13:05:26;;;;;;;21.53;4.83;;;;;;;;;;5115324;28;20616;-77
2023/03/09 13:07:57;;;;;;;31.43;5.80;;;;;;;;;;5115641;28;20198;-78
2023/03/09 13:10:28;;;;;;;25.07;4.83;;;;;;;;;;5115837;28;20225;-78
2023/03/09 13:12:56;;;;;;;18.83;4.10;;;;;;;;;;5115579;28;20197;-77
2023/03/09 13:15:25;;;;;;;31.30;5.67;;;;;;;;;;5115144;28;20193;-78
2023/03/09 13:18:05;;;;;;;24.27;4.67;;;;;;;;;;5115554;28;20270;-78
2023/03/09 13:20:36;;;;;;;20.53;4.40;;;;;;;;;;5114951;28;20274;-77
2023/03/09 13:23:07;;;;;;;29.97;5.63;;;;;;;;;;5115642;28;20194;-78
2023/03/09 13:25:36;;;;;;;20.33;4.93;;;;;;;;;;5115333;28;20634;-77
2023/03/09 13:28:14;;;;;;;24.43;5.20;;;;;;;;;;5115159;28;20613;-77
2023/03/09 13:30:43;;;;;;;19.13;4.40;;;;;;;;;;5114952;28;20288;-77
2023/03/09 13:33:15;;;;;;;26.20;5.07;;;;;;;;;;5115309;28;20225;-78
2023/03/09 13:35:44;;;;;;;27.07;5.03;;;;;;;;;;5114560;28;20289;-77
2023/03/09 13:38:20;;;;;;;23.30;4.80;;;;;;;;;;5114870;28;20714;-77
2023/03/09 13:40:51;;;;;;;26.80;4.90;;;;;;;;;;5114911;28;20254;-77
2023/03/09 13:43:20;;;;;;;23.33;5.10;;;;;;;;;;5114815;28;20218;-78
2023/03/09 13:46:11;;;;;;;20.83;4.80;;;;;;;;;;5114509;28;20305;-79
2023/03/09 13:48:43;;;;;;;28.00;5.30;;;;;;;;;;5103928;28;20292;-77
2023/03/09 13:51:24;;;;;;;18.83;3.88;;;;;;;;;;5114677;28;20236;-78
2023/03/09 13:53:52;;;;;;;20.10;3.80;;;;;;;;;;5114773;28;20213;-78
2023/03/09 13:56:19;;;;;;;19.00;3.65;;;;;;;;;;5114884;28;20292;-78
2023/03/09 13:58:49;;;;;;;17.15;3.30;;;;;;;;;;5114481;28;20316;-77
2023/03/09 14:01:21;;;;;;;18.63;3.60;;;;;;;;;;5114398;28;20662;-78
2023/03/09 14:03:48;;;;;;;15.40;3.60;;;;;;;;;;5114177;28;20198;-77
2023/03/09 14:06:17;;;;;;;18.33;3.93;;;;;;;;;;5114502;28;20225;-77
2023/03/09 14:08:48;;;;;;;17.03;3.27;;;;;;;;;;5114350;28;20202;-78
2023/03/09 14:11:19;;;;;;;12.27;3.10;;;;;;;;;;5114009;28;20198;-76
2023/03/09 14:13:50;;;;;;;14.47;2.93;;;;;;;;;;5113248;28;20284;-77
2023/03/09 14:16:18;;;;;;;12.73;3.40;;;;;;;;;;5114420;28;20294;-78
2023/03/09 14:18:48;;;;;;;18.37;3.83;;;;;;;;;;5113611;28;20308;-78
2023/03/09 14:21:20;;;;;;;15.37;2.97;;;;;;;;;;5114203;28;20217;-77
2023/03/09 14:23:47;;;;;;;20.63;3.40;;;;;;;;;;5114276;28;20296;-78
2023/03/09 14:26:24;;;;;;;10.53;2.90;;;;;;;;;;5113994;28;20274;-77
2023/03/09 14:29:03;;;;;;;15.97;3.03;;;;;;;;;;5113837;27;20200;-77
2023/03/09 14:31:31;;;;;;;11.90;2.50;;;;;;;;;;5114104;28;20281;-76
2023/03/09 14:33:59;;;;;;;14.23;3.00;;;;;;;;;;5113503;28;20217;-76
2023/03/09 14:36:27;;;;;;;10.07;2.53;;;;;;;;;;5114000;28;20706;-77
2023/03/09 14:38:56;;;;;;;12.27;2.83;;;;;;;;;;5113873;28;20221;-77
2023/03/09 14:41:24;;;;;;;10.07;2.50;;;;;;;;;;5113419;28;20213;-79